Time;durP1;ratioP1;P1;durP2;ratioP2;P2;SDS_P1;SDS_P2;PMS_P1;PMS_P2;Temp;Humidity;BMP_temperature;BMP_pressure;BME280_temperature;BME280_humidity;BME280_pressure;Samples;Min_cycle;Max_cycle;Signal;HPM_P1;HPM_P2
2021/08/11 00:00:20;;;;;;;4.50;3.90;;;;;;;;;;5097365;28;20205;-67
2021/08/11 00:02:47;;;;;;;4.57;3.27;;;;;;;;;;5097325;28;20236;-66
2021/08/11 00:05:16;;;;;;;4.07;3.13;;;;;;;;;;5097109;28;20664;-66
2021/08/11 00:07:44;;;;;;;5.80;3.90;;;;;;;;;;5097402;28;20276;-67
2021/08/11 00:10:12;;;;;;;4.87;3.80;;;;;;;;;;5097400;28;20208;-66
2021/08/11 00:12:40;;;;;;;6.17;3.57;;;;;;;;;;5105687;28;20583;-67
2021/08/11 00:15:09;;;;;;;5.67;3.77;;;;;;;;;;5117507;28;20218;-67
2021/08/11 00:17:39;;;;;;;4.77;3.90;;;;;;;;;;5117345;28;20311;-66
2021/08/11 00:20:07;;;;;;;4.50;3.93;;;;;;;;;;5094111;28;20591;-67
2021/08/11 00:22:35;;;;;;;4.87;3.10;;;;;;;;;;5096911;28;20301;-67
2021/08/11 00:25:04;;;;;;;3.90;3.50;;;;;;;;;;5097504;28;20212;-67
2021/08/11 00:27:31;;;;;;;4.10;3.53;;;;;;;;;;5100698;28;20207;-66
2021/08/11 00:30:01;;;;;;;7.50;4.43;;;;;;;;;;5100735;28;20697;-67
2021/08/11 00:32:28;;;;;;;6.37;3.30;;;;;;;;;;5100851;28;20256;-67
2021/08/11 00:34:58;;;;;;;3.30;3.00;;;;;;;;;;5100691;28;20207;-66
2021/08/11 00:37:26;;;;;;;4.23;3.67;;;;;;;;;;5100722;28;20208;-67
2021/08/11 00:39:54;;;;;;;5.57;3.77;;;;;;;;;;5100492;28;20240;-66
2021/08/11 00:42:22;;;;;;;4.90;3.40;;;;;;;;;;5100393;28;20232;-67
2021/08/11 00:44:50;;;;;;;6.53;3.57;;;;;;;;;;5100410;28;20291;-67
2021/08/11 00:47:19;;;;;;;7.67;3.20;;;;;;;;;;5100588;28;20209;-67
2021/08/11 00:49:48;;;;;;;5.30;4.07;;;;;;;;;;5100547;28;20210;-66
2021/08/11 00:52:17;;;;;;;4.73;3.90;;;;;;;;;;5100505;28;20262;-67
2021/08/11 00:54:45;;;;;;;4.97;3.77;;;;;;;;;;5100595;28;20202;-67
2021/08/11 00:57:14;;;;;;;5.00;3.33;;;;;;;;;;5100293;28;20211;-66
2021/08/11 00:59:42;;;;;;;4.93;3.90;;;;;;;;;;5100507;28;20209;-67
2021/08/11 01:02:10;;;;;;;4.43;4.00;;;;;;;;;;5100001;28;20607;-66
2021/08/11 01:04:39;;;;;;;3.87;3.43;;;;;;;;;;5100621;28;20279;-64
2021/08/11 01:07:08;;;;;;;4.70;3.20;;;;;;;;;;5100126;28;20288;-67
2021/08/11 01:09:38;;;;;;;7.43;3.50;;;;;;;;;;5100176;28;20295;-66
2021/08/11 01:12:06;;;;;;;4.57;2.83;;;;;;;;;;5102899;28;20786;-66
2021/08/11 01:14:34;;;;;;;5.07;3.87;;;;;;;;;;5120335;28;20556;-66
2021/08/11 01:17:03;;;;;;;6.47;3.57;;;;;;;;;;5120583;28;20211;-66
2021/08/11 01:19:31;;;;;;;3.83;3.53;;;;;;;;;;5101548;28;20200;-65
2021/08/11 01:22:02;;;;;;;4.90;3.47;;;;;;;;;;5099846;28;20228;-65
2021/08/11 01:24:36;;;;;;;3.93;3.27;;;;;;;;;;5100193;28;20214;-64
2021/08/11 01:27:10;;;;;;;6.30;3.50;;;;;;;;;;5099673;28;20218;-64
2021/08/11 01:29:46;;;;;;;4.53;4.03;;;;;;;;;;5099735;28;20208;-65
2021/08/11 01:32:17;;;;;;;5.10;3.40;;;;;;;;;;5099765;28;20221;-65
2021/08/11 01:34:47;;;;;;;8.43;3.43;;;;;;;;;;5099628;28;20227;-64
2021/08/11 01:37:17;;;;;;;3.80;3.37;;;;;;;;;;5099448;28;20205;-65
2021/08/11 01:39:49;;;;;;;5.97;3.93;;;;;;;;;;5099193;28;20237;-64
2021/08/11 01:42:18;;;;;;;5.07;3.67;;;;;;;;;;5099391;28;20233;-64
2021/08/11 01:44:52;;;;;;;4.07;3.50;;;;;;;;;;5099602;28;20213;-65
2021/08/11 01:47:23;;;;;;;5.17;3.87;;;;;;;;;;5099374;28;20211;-64
2021/08/11 01:49:53;;;;;;;4.60;3.93;;;;;;;;;;5099504;28;20212;-64
2021/08/11 01:52:21;;;;;;;3.80;3.50;;;;;;;;;;5099205;28;20217;-64
2021/08/11 01:54:49;;;;;;;4.57;3.90;;;;;;;;;;5099439;28;20264;-64
2021/08/11 01:57:18;;;;;;;5.40;3.60;;;;;;;;;;5099082;28;20272;-64
2021/08/11 01:59:47;;;;;;;4.67;3.90;;;;;;;;;;5099284;28;20606;-64
2021/08/11 02:02:15;;;;;;;3.77;3.40;;;;;;;;;;5095482;28;20560;-64
2021/08/11 02:04:44;;;;;;;7.23;4.23;;;;;;;;;;5098937;28;20209;-64
2021/08/11 02:07:14;;;;;;;3.90;3.33;;;;;;;;;;5101900;28;20201;-64
2021/08/11 02:09:42;;;;;;;6.00;4.33;;;;;;;;;;5108409;27;20199;-64
2021/08/11 02:12:10;;;;;;;5.03;4.10;;;;;;;;;;5102980;28;20209;-64
2021/08/11 02:14:40;;;;;;;3.80;3.50;;;;;;;;;;5102480;27;20207;-64
2021/08/11 02:17:08;;;;;;;6.67;3.87;;;;;;;;;;5098750;28;20235;-64
2021/08/11 02:19:36;;;;;;;5.43;4.27;;;;;;;;;;5098494;28;20374;-64
2021/08/11 02:22:04;;;;;;;5.47;4.13;;;;;;;;;;5098369;28;20218;-65
2021/08/11 02:24:33;;;;;;;4.90;4.03;;;;;;;;;;5098840;28;20203;-64
2021/08/11 02:27:02;;;;;;;7.57;4.07;;;;;;;;;;5098407;28;20213;-64
2021/08/11 02:29:35;;;;;;;6.93;4.73;;;;;;;;;;5098548;28;20219;-64
2021/08/11 02:32:09;;;;;;;4.77;4.00;;;;;;;;;;5098524;28;20222;-64
2021/08/11 02:34:41;;;;;;;10.07;3.93;;;;;;;;;;5098610;28;20212;-64
2021/08/11 02:37:11;;;;;;;5.27;4.13;;;;;;;;;;5098679;28;20206;-64
2021/08/11 02:39:46;;;;;;;7.13;4.90;;;;;;;;;;5098185;28;20327;-64
2021/08/11 02:42:17;;;;;;;4.43;3.93;;;;;;;;;;5097983;28;20699;-64
2021/08/11 02:44:48;;;;;;;7.60;4.30;;;;;;;;;;5098780;28;20205;-64
2021/08/11 02:47:16;;;;;;;4.60;4.20;;;;;;;;;;5098568;28;20207;-64
2021/08/11 02:49:44;;;;;;;4.90;4.10;;;;;;;;;;5097950;28;20647;-64
2021/08/11 02:52:13;;;;;;;8.03;4.83;;;;;;;;;;5097887;28;20229;-64
2021/08/11 02:54:43;;;;;;;6.70;4.47;;;;;;;;;;5098225;28;20268;-64
2021/08/11 02:57:12;;;;;;;7.57;4.97;;;;;;;;;;5097951;28;20205;-64
2021/08/11 02:59:40;;;;;;;6.93;4.90;;;;;;;;;;5097810;28;20290;-64
2021/08/11 03:02:08;;;;;;;5.83;5.10;;;;;;;;;;5097848;28;20225;-64
2021/08/11 03:04:37;;;;;;;7.03;4.70;;;;;;;;;;5098353;28;20212;-64
2021/08/11 03:07:05;;;;;;;6.63;4.23;;;;;;;;;;5097876;28;20215;-64
2021/08/11 03:09:34;;;;;;;7.30;5.00;;;;;;;;;;5098108;28;20208;-64
2021/08/11 03:12:06;;;;;;;6.90;4.30;;;;;;;;;;5100566;28;20579;-64
2021/08/11 03:14:35;;;;;;;7.63;4.77;;;;;;;;;;5118510;28;20207;-64
2021/08/11 03:17:08;;;;;;;6.03;4.47;;;;;;;;;;5118225;28;20332;-64
2021/08/11 03:19:36;;;;;;;8.50;5.13;;;;;;;;;;5098869;28;20205;-64
2021/08/11 03:22:04;;;;;;;6.00;4.87;;;;;;;;;;5097592;28;20719;-64
2021/08/11 03:24:32;;;;;;;5.47;4.43;;;;;;;;;;5097865;28;20708;-64
2021/08/11 03:27:00;;;;;;;5.43;4.37;;;;;;;;;;5097164;28;20206;-64
2021/08/11 03:29:30;;;;;;;6.77;4.67;;;;;;;;;;5097742;28;20265;-64
2021/08/11 03:31:58;;;;;;;5.40;4.47;;;;;;;;;;5097430;28;20240;-64
2021/08/11 03:34:25;;;;;;;9.27;4.80;;;;;;;;;;5097566;28;20206;-64
2021/08/11 03:36:53;;;;;;;15.40;5.40;;;;;;;;;;5097571;28;20206;-64
2021/08/11 03:39:21;;;;;;;6.30;4.80;;;;;;;;;;5097198;28;20325;-64
2021/08/11 03:41:49;;;;;;;7.37;4.67;;;;;;;;;;5096947;28;20584;-64
2021/08/11 03:44:17;;;;;;;6.30;4.53;;;;;;;;;;5097626;28;20289;-64
2021/08/11 03:46:47;;;;;;;9.60;4.70;;;;;;;;;;5097537;28;20213;-64
2021/08/11 03:49:15;;;;;;;9.23;4.90;;;;;;;;;;5097801;28;20232;-64
2021/08/11 03:51:42;;;;;;;6.73;4.90;;;;;;;;;;5097861;28;20224;-64
2021/08/11 03:54:10;;;;;;;7.03;4.67;;;;;;;;;;5097490;28;20211;-64
2021/08/11 03:56:38;;;;;;;6.70;4.87;;;;;;;;;;5097149;28;20578;-64
2021/08/11 03:59:06;;;;;;;5.87;4.70;;;;;;;;;;5097155;28;20240;-64
2021/08/11 04:01:34;;;;;;;7.57;5.30;;;;;;;;;;5099812;28;20234;-64
2021/08/11 04:04:04;;;;;;;7.37;4.80;;;;;;;;;;5101433;28;20232;-64
2021/08/11 04:06:32;;;;;;;6.47;4.30;;;;;;;;;;5101491;28;20207;-64
2021/08/11 04:09:00;;;;;;;6.27;4.53;;;;;;;;;;5101403;28;20213;-64
2021/08/11 04:11:28;;;;;;;7.90;5.03;;;;;;;;;;5101065;28;20233;-64
2021/08/11 04:13:56;;;;;;;6.70;4.70;;;;;;;;;;5099345;28;20209;-64
2021/08/11 04:16:24;;;;;;;10.50;4.80;;;;;;;;;;5101076;28;20291;-64
2021/08/11 04:18:52;;;;;;;6.43;4.73;;;;;;;;;;5101146;28;20597;-64
2021/08/11 04:21:21;;;;;;;8.80;4.97;;;;;;;;;;5101402;28;20231;-64
2021/08/11 04:23:49;;;;;;;6.73;4.60;;;;;;;;;;5101221;28;20232;-64
2021/08/11 04:26:17;;;;;;;6.87;4.90;;;;;;;;;;5100631;28;20211;-64
2021/08/11 04:28:45;;;;;;;6.87;5.00;;;;;;;;;;5100996;28;20220;-64
2021/08/11 04:31:13;;;;;;;7.43;4.80;;;;;;;;;;5100791;28;20206;-64
2021/08/11 04:33:41;;;;;;;8.17;5.23;;;;;;;;;;5100916;28;20663;-64
2021/08/11 04:36:09;;;;;;;8.23;4.60;;;;;;;;;;5100851;28;20206;-64
2021/08/11 04:38:39;;;;;;;8.17;5.80;;;;;;;;;;5100809;28;20238;-64
2021/08/11 04:41:07;;;;;;;5.63;4.40;;;;;;;;;;5100405;28;20662;-64
2021/08/11 04:43:35;;;;;;;8.70;5.27;;;;;;;;;;5100763;28;20225;-64
2021/08/11 04:46:02;;;;;;;5.87;4.67;;;;;;;;;;5100655;28;20201;-64
2021/08/11 04:48:30;;;;;;;7.23;5.20;;;;;;;;;;5100811;28;20202;-64
2021/08/11 04:50:58;;;;;;;7.37;5.27;;;;;;;;;;5100448;28;20235;-64
2021/08/11 04:53:26;;;;;;;6.60;5.20;;;;;;;;;;5100653;28;20653;-64
2021/08/11 04:55:56;;;;;;;6.70;4.80;;;;;;;;;;5100083;28;20210;-64
2021/08/11 04:58:23;;;;;;;7.47;5.53;;;;;;;;;;5100607;28;20209;-64
2021/08/11 05:00:51;;;;;;;7.00;5.20;;;;;;;;;;5100422;28;20206;-64
2021/08/11 05:03:19;;;;;;;10.43;6.07;;;;;;;;;;5100310;28;20226;-64
2021/08/11 05:05:48;;;;;;;9.60;6.00;;;;;;;;;;5100346;28;20290;-64
2021/08/11 05:08:15;;;;;;;7.07;5.20;;;;;;;;;;5100323;28;20206;-64
2021/08/11 05:10:43;;;;;;;8.83;5.43;;;;;;;;;;5099671;28;20209;-64
2021/08/11 05:13:14;;;;;;;7.93;5.00;;;;;;;;;;5110547;28;20587;-64
2021/08/11 05:15:42;;;;;;;7.53;5.90;;;;;;;;;;5120563;28;20201;-64
2021/08/11 05:18:11;;;;;;;7.40;5.30;;;;;;;;;;5113068;28;20273;-64
2021/08/11 05:20:39;;;;;;;8.73;5.77;;;;;;;;;;5100124;28;20201;-66
2021/08/11 05:23:07;;;;;;;9.00;6.30;;;;;;;;;;5099933;28;20235;-64
2021/08/11 05:25:35;;;;;;;8.33;6.23;;;;;;;;;;5099266;28;20232;-64
2021/08/11 05:28:03;;;;;;;11.47;5.00;;;;;;;;;;5099924;28;20610;-64
2021/08/11 05:30:33;;;;;;;7.80;5.50;;;;;;;;;;5100028;28;20207;-64
2021/08/11 05:33:00;;;;;;;11.90;5.80;;;;;;;;;;5099696;28;20229;-64
2021/08/11 05:35:28;;;;;;;5.60;4.90;;;;;;;;;;5099451;28;20216;-64
2021/08/11 05:37:56;;;;;;;6.97;5.23;;;;;;;;;;5099622;28;20201;-64
2021/08/11 05:40:24;;;;;;;6.87;5.23;;;;;;;;;;5099179;28;20237;-64
2021/08/11 05:42:52;;;;;;;13.27;5.87;;;;;;;;;;5099680;28;20225;-64
2021/08/11 05:45:21;;;;;;;9.27;5.37;;;;;;;;;;5099498;28;20237;-64
2021/08/11 05:47:50;;;;;;;9.10;5.10;;;;;;;;;;5099330;28;20216;-64
2021/08/11 05:50:18;;;;;;;8.33;5.97;;;;;;;;;;5099471;28;20708;-64
2021/08/11 05:52:47;;;;;;;6.10;5.07;;;;;;;;;;5099421;28;20317;-64
2021/08/11 05:55:15;;;;;;;10.57;5.83;;;;;;;;;;5098833;28;20208;-64
2021/08/11 05:57:43;;;;;;;6.87;6.17;;;;;;;;;;5099238;28;20206;-64
2021/08/11 06:00:12;;;;;;;10.47;5.50;;;;;;;;;;5099122;28;20573;-64
2021/08/11 06:02:40;;;;;;;7.10;5.27;;;;;;;;;;5099116;28;20226;-64
2021/08/11 06:05:10;;;;;;;7.43;4.87;;;;;;;;;;5099232;28;20312;-64
2021/08/11 06:07:38;;;;;;;6.93;6.17;;;;;;;;;;5099156;28;20236;-64
2021/08/11 06:10:07;;;;;;;13.47;6.50;;;;;;;;;;5098857;28;20210;-64
2021/08/11 06:12:35;;;;;;;9.60;5.20;;;;;;;;;;5107820;28;20231;-64
2021/08/11 06:15:03;;;;;;;8.90;6.07;;;;;;;;;;5119485;28;20286;-64
2021/08/11 06:17:31;;;;;;;7.43;6.43;;;;;;;;;;5119152;28;20262;-64
2021/08/11 06:19:59;;;;;;;7.70;5.60;;;;;;;;;;5097153;28;20227;-64
2021/08/11 06:22:31;;;;;;;9.10;5.63;;;;;;;;;;5098722;28;20221;-64
2021/08/11 06:24:58;;;;;;;9.80;5.57;;;;;;;;;;5098040;28;20227;-64
2021/08/11 06:27:27;;;;;;;7.20;5.30;;;;;;;;;;5098745;28;20202;-64
2021/08/11 06:29:56;;;;;;;6.40;5.33;;;;;;;;;;5098739;28;20212;-63
2021/08/11 06:32:24;;;;;;;9.33;5.70;;;;;;;;;;5098689;28;20236;-64
2021/08/11 06:34:52;;;;;;;8.63;5.93;;;;;;;;;;5098657;28;20206;-64
2021/08/11 06:37:19;;;;;;;8.27;4.87;;;;;;;;;;5098375;28;20205;-64
2021/08/11 06:39:49;;;;;;;7.90;5.87;;;;;;;;;;5098200;28;20318;-64
2021/08/11 06:42:17;;;;;;;10.40;5.93;;;;;;;;;;5098346;28;20221;-64
2021/08/11 06:44:45;;;;;;;8.40;5.77;;;;;;;;;;5098102;28;20230;-64
2021/08/11 06:47:13;;;;;;;8.70;5.60;;;;;;;;;;5098392;28;20208;-64
2021/08/11 06:49:41;;;;;;;8.47;5.80;;;;;;;;;;5098319;28;20219;-64
2021/08/11 06:52:09;;;;;;;8.43;5.40;;;;;;;;;;5098303;28;20314;-64
2021/08/11 06:54:36;;;;;;;5.87;4.97;;;;;;;;;;5098200;28;20222;-63
2021/08/11 06:57:06;;;;;;;9.67;4.90;;;;;;;;;;5098003;28;20703;-64
2021/08/11 06:59:34;;;;;;;6.33;4.83;;;;;;;;;;5098056;28;20213;-63
2021/08/11 07:02:02;;;;;;;8.07;5.00;;;;;;;;;;5097758;28;20225;-64
2021/08/11 07:04:30;;;;;;;5.87;4.80;;;;;;;;;;5098164;28;20238;-64
2021/08/11 07:06:58;;;;;;;6.77;4.97;;;;;;;;;;5098029;28;20209;-63
2021/08/11 07:09:26;;;;;;;5.73;5.13;;;;;;;;;;5097781;28;20688;-63
2021/08/11 07:11:54;;;;;;;5.57;4.30;;;;;;;;;;5100644;28;20213;-64
2021/08/11 07:14:23;;;;;;;6.50;5.17;;;;;;;;;;5117992;28;20288;-64
2021/08/11 07:16:51;;;;;;;6.80;4.87;;;;;;;;;;5118110;28;20211;-63
2021/08/11 07:19:20;;;;;;;5.17;4.30;;;;;;;;;;5101528;28;20202;-63
2021/08/11 07:21:48;;;;;;;5.37;4.80;;;;;;;;;;5097337;28;20768;-64
2021/08/11 07:24:16;;;;;;;8.23;5.07;;;;;;;;;;5097873;28;20212;-64
2021/08/11 07:26:44;;;;;;;8.47;5.27;;;;;;;;;;5097341;28;20240;-64
2021/08/11 07:29:11;;;;;;;8.13;4.60;;;;;;;;;;5097676;28;20210;-64
2021/08/11 07:31:41;;;;;;;7.43;5.27;;;;;;;;;;5097135;28;20240;-64
2021/08/11 07:34:09;;;;;;;6.23;4.80;;;;;;;;;;5097475;28;20288;-64
2021/08/11 07:36:37;;;;;;;8.67;4.70;;;;;;;;;;5097227;28;20204;-64
2021/08/11 07:39:05;;;;;;;5.80;4.83;;;;;;;;;;5097473;28;20244;-64
2021/08/11 07:41:33;;;;;;;6.97;5.10;;;;;;;;;;5097135;28;20350;-66
2021/08/11 07:44:01;;;;;;;7.87;4.47;;;;;;;;;;5097784;28;20247;-64
2021/08/11 07:46:29;;;;;;;6.43;5.03;;;;;;;;;;5097165;28;20834;-65
2021/08/11 07:49:00;;;;;;;6.00;4.43;;;;;;;;;;5097428;28;20206;-66
2021/08/11 07:51:28;;;;;;;9.73;5.40;;;;;;;;;;5097082;28;20232;-66
2021/08/11 07:53:56;;;;;;;7.87;4.70;;;;;;;;;;5097281;28;20579;-66
2021/08/11 07:56:24;;;;;;;6.07;4.70;;;;;;;;;;5096876;28;20201;-66
2021/08/11 07:58:52;;;;;;;5.10;4.60;;;;;;;;;;5097484;28;20273;-64
2021/08/11 08:01:20;;;;;;;7.63;4.80;;;;;;;;;;5097254;28;20318;-64
2021/08/11 08:03:48;;;;;;;8.83;5.37;;;;;;;;;;5097034;28;20208;-64
2021/08/11 08:06:18;;;;;;;7.43;4.70;;;;;;;;;;5097358;28;20282;-64
2021/08/11 08:08:46;;;;;;;6.87;4.83;;;;;;;;;;5097127;28;20231;-64
2021/08/11 08:11:14;;;;;;;5.10;4.60;;;;;;;;;;5097079;28;20202;-64
2021/08/11 08:13:45;;;;;;;6.30;4.53;;;;;;;;;;5115003;28;20212;-64
2021/08/11 08:16:13;;;;;;;7.23;4.57;;;;;;;;;;5117549;28;20284;-64
2021/08/11 08:18:41;;;;;;;6.10;4.17;;;;;;;;;;5106660;28;20258;-64
2021/08/11 08:21:10;;;;;;;7.77;4.83;;;;;;;;;;5097252;28;20210;-65
2021/08/11 08:23:39;;;;;;;6.77;4.43;;;;;;;;;;5097448;28;20214;-64
2021/08/11 08:26:07;;;;;;;5.93;4.27;;;;;;;;;;5096842;28;20315;-64
2021/08/11 08:28:35;;;;;;;7.30;4.57;;;;;;;;;;5096817;28;20584;-64
2021/08/11 08:31:03;;;;;;;4.70;4.23;;;;;;;;;;5096670;28;20692;-64
2021/08/11 08:33:31;;;;;;;6.97;5.07;;;;;;;;;;5096962;28;20316;-64
2021/08/11 08:35:59;;;;;;;7.80;4.37;;;;;;;;;;5097120;28;20204;-64
2021/08/11 08:38:27;;;;;;;6.77;4.30;;;;;;;;;;5096988;28;20214;-66
2021/08/11 08:41:11;;;;;;;6.63;4.37;;;;;;;;;;5096726;28;20271;-66
2021/08/11 08:43:39;;;;;;;5.33;4.60;;;;;;;;;;5097135;28;20214;-66
2021/08/11 08:46:08;;;;;;;6.43;5.43;;;;;;;;;;5096819;28;20226;-65
2021/08/11 08:48:39;;;;;;;5.43;4.57;;;;;;;;;;5100745;28;20205;-66
2021/08/11 08:51:07;;;;;;;7.43;4.47;;;;;;;;;;5100626;28;20206;-65
2021/08/11 08:53:35;;;;;;;8.23;4.77;;;;;;;;;;5100578;28;20207;-66
2021/08/11 08:56:04;;;;;;;7.83;4.33;;;;;;;;;;5100359;28;20210;-66
2021/08/11 08:58:33;;;;;;;7.13;3.90;;;;;;;;;;5100499;28;20209;-66
2021/08/11 09:01:01;;;;;;;7.43;3.90;;;;;;;;;;5100348;28;20228;-65
2021/08/11 09:03:29;;;;;;;5.90;4.43;;;;;;;;;;5100097;28;20221;-65
2021/08/11 09:05:57;;;;;;;4.90;4.20;;;;;;;;;;5100151;28;20219;-66
2021/08/11 09:08:25;;;;;;;6.37;3.80;;;;;;;;;;5100310;28;20248;-65
2021/08/11 09:10:53;;;;;;;5.47;4.27;;;;;;;;;;5099604;28;20634;-66
2021/08/11 09:13:22;;;;;;;4.33;3.80;;;;;;;;;;5113591;28;20229;-66
2021/08/11 09:15:52;;;;;;;6.40;4.40;;;;;;;;;;5120337;28;20209;-65
2021/08/11 09:18:20;;;;;;;7.23;4.30;;;;;;;;;;5111399;28;20206;-65
2021/08/11 09:20:49;;;;;;;7.13;5.10;;;;;;;;;;5099886;28;20554;-66
2021/08/11 09:23:34;;;;;;;7.70;4.80;;;;;;;;;;5099981;28;20232;-65
2021/08/11 09:26:03;;;;;;;5.37;4.30;;;;;;;;;;5099663;28;20257;-64
2021/08/11 09:28:32;;;;;;;5.00;4.00;;;;;;;;;;5099498;28;20297;-64
2021/08/11 09:31:23;;;;;;;5.93;4.70;;;;;;;;;;5099781;28;20210;-64
2021/08/11 09:33:51;;;;;;;6.90;4.43;;;;;;;;;;5099889;28;20216;-64
2021/08/11 09:36:19;;;;;;;6.43;4.30;;;;;;;;;;5099645;28;20215;-63
2021/08/11 09:38:54;;;;;;;7.90;4.43;;;;;;;;;;5099386;28;20716;-66
2021/08/11 09:41:24;;;;;;;6.70;4.30;;;;;;;;;;5099047;28;20685;-65
2021/08/11 09:44:03;;;;;;;6.90;4.60;;;;;;;;;;5099515;28;20238;-64
2021/08/11 09:46:32;;;;;;;4.73;3.97;;;;;;;;;;5099203;28;20245;-66
2021/08/11 09:49:01;;;;;;;5.10;4.40;;;;;;;;;;5099489;28;20260;-66
2021/08/11 09:51:29;;;;;;;5.53;4.83;;;;;;;;;;5099349;28;20305;-66
2021/08/11 09:53:57;;;;;;;6.30;5.47;;;;;;;;;;5099121;28;20709;-66
2021/08/11 09:56:33;;;;;;;5.90;5.03;;;;;;;;;;5098767;28;20235;-63
2021/08/11 09:59:03;;;;;;;6.10;5.00;;;;;;;;;;5098987;28;20222;-64
2021/08/11 10:01:32;;;;;;;6.57;5.90;;;;;;;;;;5099002;28;20224;-64
2021/08/11 10:04:02;;;;;;;8.30;4.80;;;;;;;;;;5099131;28;20218;-64
2021/08/11 10:06:32;;;;;;;7.63;5.20;;;;;;;;;;5098806;28;20238;-66
2021/08/11 10:09:11;;;;;;;7.03;5.37;;;;;;;;;;5098765;28;20277;-66
2021/08/11 10:11:40;;;;;;;7.57;5.50;;;;;;;;;;5098351;28;20595;-65
2021/08/11 10:14:10;;;;;;;6.77;5.30;;;;;;;;;;5119205;28;20652;-65
2021/08/11 10:16:39;;;;;;;6.20;5.03;;;;;;;;;;5119029;28;20232;-65
2021/08/11 10:19:08;;;;;;;7.90;5.57;;;;;;;;;;5104121;28;20719;-65
2021/08/11 10:21:39;;;;;;;8.03;6.73;;;;;;;;;;5098510;28;20238;-65
2021/08/11 10:24:08;;;;;;;8.53;6.03;;;;;;;;;;5098388;28;20208;-65
2021/08/11 10:26:36;;;;;;;6.17;5.40;;;;;;;;;;5098029;28;20225;-65
2021/08/11 10:29:05;;;;;;;8.90;6.30;;;;;;;;;;5098371;28;20579;-64
2021/08/11 10:31:33;;;;;;;7.67;6.87;;;;;;;;;;5098279;28;20235;-65
2021/08/11 10:34:03;;;;;;;6.83;5.90;;;;;;;;;;5098279;28;20282;-65
2021/08/11 10:36:31;;;;;;;9.10;5.93;;;;;;;;;;5098482;28;20218;-65
2021/08/11 10:39:00;;;;;;;6.17;5.33;;;;;;;;;;5098386;28;20723;-65
2021/08/11 10:41:28;;;;;;;9.80;7.33;;;;;;;;;;5098196;28;20233;-65
2021/08/11 10:43:57;;;;;;;6.73;5.63;;;;;;;;;;5098285;28;20568;-63
2021/08/11 10:46:31;;;;;;;6.63;5.53;;;;;;;;;;5098269;28;20212;-65
2021/08/11 10:49:04;;;;;;;8.13;5.70;;;;;;;;;;5098332;28;20260;-65
2021/08/11 10:51:36;;;;;;;11.50;6.60;;;;;;;;;;5098350;28;20236;-63
2021/08/11 10:54:04;;;;;;;6.57;5.77;;;;;;;;;;5098231;28;20226;-66
2021/08/11 10:56:42;;;;;;;7.97;5.40;;;;;;;;;;5097874;28;20564;-64
2021/08/11 10:59:43;;;;;;;12.10;5.93;;;;;;;;;;5098095;28;20569;-64
2021/08/11 11:02:25;;;;;;;8.07;6.00;;;;;;;;;;5098103;28;20231;-66
2021/08/11 11:04:55;;;;;;;6.43;5.70;;;;;;;;;;5097995;28;20207;-64
2021/08/11 11:07:23;;;;;;;9.70;6.23;;;;;;;;;;5098001;28;20233;-64
2021/08/11 11:10:11;;;;;;;7.63;6.60;;;;;;;;;;5097373;28;20210;-64
2021/08/11 11:12:39;;;;;;;9.10;6.07;;;;;;;;;;5106625;28;20228;-64
2021/08/11 11:15:07;;;;;;;5.83;5.23;;;;;;;;;;5118263;28;20275;-64
2021/08/11 11:17:55;;;;;;;7.87;5.73;;;;;;;;;;5118225;28;20294;-64
2021/08/11 11:20:25;;;;;;;6.57;5.73;;;;;;;;;;5096454;28;20206;-64
2021/08/11 11:22:56;;;;;;;7.47;5.80;;;;;;;;;;5097906;28;20262;-64
2021/08/11 11:25:43;;;;;;;6.23;5.63;;;;;;;;;;5097460;28;20207;-64
2021/08/11 11:28:11;;;;;;;9.67;7.73;;;;;;;;;;5097806;28;20235;-64
2021/08/11 11:30:39;;;;;;;7.67;5.87;;;;;;;;;;5097935;28;20266;-64
2021/08/11 11:33:30;;;;;;;7.47;6.63;;;;;;;;;;5097607;28;20222;-64
2021/08/11 11:36:17;;;;;;;6.57;5.97;;;;;;;;;;5097697;28;20680;-64
2021/08/11 11:38:59;;;;;;;6.93;6.00;;;;;;;;;;5097387;28;20238;-64
2021/08/11 11:41:29;;;;;;;8.93;5.80;;;;;;;;;;5097425;28;20265;-64
2021/08/11 11:43:57;;;;;;;8.13;6.20;;;;;;;;;;5097450;28;20205;-63
2021/08/11 11:46:40;;;;;;;6.63;5.93;;;;;;;;;;5097174;28;20274;-63
2021/08/11 11:49:17;;;;;;;7.27;6.00;;;;;;;;;;5097276;28;20232;-64
2021/08/11 11:51:45;;;;;;;7.43;5.90;;;;;;;;;;5097370;28;20264;-63
2021/08/11 11:54:13;;;;;;;9.03;6.00;;;;;;;;;;5097629;28;20690;-63
2021/08/11 11:56:47;;;;;;;7.27;5.83;;;;;;;;;;5097371;28;20207;-63
2021/08/11 11:59:15;;;;;;;8.87;6.40;;;;;;;;;;5097670;28;20648;-63
2021/08/11 12:01:43;;;;;;;8.03;5.73;;;;;;;;;;5097216;28;20225;-64
2021/08/11 12:04:12;;;;;;;6.47;5.75;;;;;;;;;;5097349;28;20208;-63
2021/08/11 12:06:43;;;;;;;14.52;5.78;;;;;;;;;;5097635;28;20216;-64
2021/08/11 12:09:11;;;;;;;6.07;5.50;;;;;;;;;;5097058;28;20226;-64
2021/08/11 12:11:39;;;;;;;8.05;6.47;;;;;;;;;;5097058;28;20225;-63
2021/08/11 12:14:09;;;;;;;7.70;5.70;;;;;;;;;;5116739;28;20211;-63
2021/08/11 12:16:37;;;;;;;7.57;5.20;;;;;;;;;;5117858;28;20209;-65
2021/08/11 12:19:09;;;;;;;8.30;6.30;;;;;;;;;;5102513;28;20259;-65
2021/08/11 12:21:38;;;;;;;10.03;6.23;;;;;;;;;;5098106;28;20229;-64
2021/08/11 12:24:05;;;;;;;7.57;6.03;;;;;;;;;;5101299;28;20578;-63
2021/08/11 12:26:34;;;;;;;7.80;5.93;;;;;;;;;;5101465;28;20653;-64
2021/08/11 12:29:02;;;;;;;8.43;5.87;;;;;;;;;;5101343;28;20750;-65
2021/08/11 12:31:33;;;;;;;7.63;6.30;;;;;;;;;;5101130;28;20236;-65
2021/08/11 12:34:01;;;;;;;8.03;6.50;;;;;;;;;;5101182;28;20651;-63
2021/08/11 12:36:31;;;;;;;7.47;6.17;;;;;;;;;;5100941;28;20212;-65
2021/08/11 12:39:01;;;;;;;7.37;5.70;;;;;;;;;;5100981;28;20229;-64
2021/08/11 12:41:30;;;;;;;6.53;5.93;;;;;;;;;;5100546;28;20244;-64
2021/08/11 12:43:59;;;;;;;7.60;5.57;;;;;;;;;;5101003;28;20202;-64
2021/08/11 12:46:48;;;;;;;6.40;5.80;;;;;;;;;;5100895;28;20208;-64
2021/08/11 12:49:18;;;;;;;7.97;6.40;;;;;;;;;;5100455;28;20589;-64
2021/08/11 12:51:46;;;;;;;6.33;5.73;;;;;;;;;;5100683;28;20244;-64
2021/08/11 12:54:14;;;;;;;7.35;6.10;;;;;;;;;;5100654;28;20211;-62
2021/08/11 12:56:55;;;;;;;6.88;6.03;;;;;;;;;;5100352;28;20215;-62
2021/08/11 12:59:23;;;;;;;6.50;5.37;;;;;;;;;;5100327;28;20567;-64
2021/08/11 13:01:52;;;;;;;8.07;6.27;;;;;;;;;;5100325;28;20231;-64
2021/08/11 13:04:24;;;;;;;8.07;5.90;;;;;;;;;;5100508;28;20200;-63
2021/08/11 13:06:53;;;;;;;7.50;6.45;;;;;;;;;;5100545;28;20206;-64
2021/08/11 13:09:22;;;;;;;6.97;6.28;;;;;;;;;;5100405;28;20229;-64
2021/08/11 13:11:51;;;;;;;7.72;6.93;;;;;;;;;;5099617;28;20240;-62
2021/08/11 13:14:34;;;;;;;6.47;5.80;;;;;;;;;;5087094;28;20210;-64
2021/08/11 13:17:04;;;;;;;6.18;5.45;;;;;;;;;;5099905;28;20218;-64
2021/08/11 13:19:32;;;;;;;7.60;6.53;;;;;;;;;;5099893;28;20291;-62
2021/08/11 13:22:00;;;;;;;8.00;5.68;;;;;;;;;;5099893;28;20589;-64
2021/08/11 13:24:28;;;;;;;7.45;5.82;;;;;;;;;;5100389;28;20217;-64
2021/08/11 13:26:57;;;;;;;7.65;5.85;;;;;;;;;;5099764;28;20219;-64
2021/08/11 13:29:26;;;;;;;8.57;6.80;;;;;;;;;;5099829;28;20309;-64
2021/08/11 13:31:55;;;;;;;7.95;6.28;;;;;;;;;;5099585;28;20597;-64
2021/08/11 13:34:24;;;;;;;9.35;6.18;;;;;;;;;;5099723;28;20211;-64
2021/08/11 13:36:52;;;;;;;6.32;5.72;;;;;;;;;;5099940;28;20205;-64
2021/08/11 13:39:20;;;;;;;6.18;5.45;;;;;;;;;;5099354;28;20231;-64
2021/08/11 13:41:48;;;;;;;6.55;5.90;;;;;;;;;;5099350;28;20235;-64
2021/08/11 13:44:16;;;;;;;6.70;6.00;;;;;;;;;;5099670;28;20218;-64
2021/08/11 13:46:44;;;;;;;6.65;5.38;;;;;;;;;;5099670;28;20291;-64
2021/08/11 13:49:12;;;;;;;6.28;5.55;;;;;;;;;;5099190;28;20236;-62
2021/08/11 13:51:41;;;;;;;6.82;5.97;;;;;;;;;;5099315;28;20320;-63
2021/08/11 13:54:09;;;;;;;6.53;5.82;;;;;;;;;;5099072;28;20209;-62
2021/08/11 13:56:37;;;;;;;6.60;5.57;;;;;;;;;;5099119;28;20728;-64
2021/08/11 13:59:05;;;;;;;7.05;5.45;;;;;;;;;;5099482;28;20209;-65
2021/08/11 14:01:33;;;;;;;6.70;6.00;;;;;;;;;;5099237;28;20225;-62
2021/08/11 14:04:01;;;;;;;6.25;5.20;;;;;;;;;;5099328;28;20221;-62
2021/08/11 14:06:29;;;;;;;7.70;5.45;;;;;;;;;;5099120;28;20208;-65
2021/08/11 14:08:59;;;;;;;6.47;5.22;;;;;;;;;;5098886;28;20229;-65
2021/08/11 14:11:28;;;;;;;6.32;5.72;;;;;;;;;;5098692;28;20225;-65
2021/08/11 14:13:57;;;;;;;6.70;6.05;;;;;;;;;;5085205;28;20548;-65
2021/08/11 14:16:25;;;;;;;6.47;5.35;;;;;;;;;;5098547;28;20298;-65
2021/08/11 14:18:53;;;;;;;5.82;5.15;;;;;;;;;;5098944;28;20196;-65
2021/08/11 14:21:21;;;;;;;7.47;5.85;;;;;;;;;;5098957;28;20229;-65
2021/08/11 14:23:49;;;;;;;7.57;6.43;;;;;;;;;;5094610;28;20201;-63
2021/08/11 14:26:18;;;;;;;9.10;5.30;;;;;;;;;;5091881;28;20197;-65
2021/08/11 14:28:46;;;;;;;6.45;5.75;;;;;;;;;;5106092;28;20224;-63
2021/08/11 14:31:14;;;;;;;6.90;5.95;;;;;;;;;;5102209;28;20577;-64
2021/08/11 14:33:42;;;;;;;7.60;5.97;;;;;;;;;;5098492;28;20280;-65
2021/08/11 14:36:10;;;;;;;7.03;5.90;;;;;;;;;;5098626;28;20208;-65
2021/08/11 14:38:38;;;;;;;5.85;5.25;;;;;;;;;;5098303;28;20594;-65
2021/08/11 14:41:06;;;;;;;6.15;5.25;;;;;;;;;;5093273;28;20566;-65
2021/08/11 14:43:35;;;;;;;7.28;5.50;;;;;;;;;;5098465;28;20284;-66
2021/08/11 14:46:04;;;;;;;7.18;5.82;;;;;;;;;;5097632;28;20199;-65
2021/08/11 14:48:32;;;;;;;7.35;5.68;;;;;;;;;;5098339;28;20210;-63
2021/08/11 14:51:00;;;;;;;8.23;5.90;;;;;;;;;;5098294;28;20323;-63
2021/08/11 14:53:28;;;;;;;6.65;5.72;;;;;;;;;;5098415;28;20209;-63
2021/08/11 14:55:56;;;;;;;6.40;5.45;;;;;;;;;;5098041;28;20215;-63